createdAt,value
2022-10-01T00:01:18.254Z,13.43
2022-10-01T00:03:45.663Z,13.46
2022-10-01T00:06:20.438Z,13.45
2022-10-01T00:08:49.488Z,13.46
2022-10-01T00:11:21.108Z,13.48
2022-10-01T00:13:48.503Z,13.50
2022-10-01T00:16:17.852Z,13.54
2022-10-01T00:18:46.333Z,13.54
2022-10-01T00:21:16.136Z,13.52
2022-10-01T00:23:42.954Z,13.52
2022-10-01T00:26:12.819Z,13.49
2022-10-01T00:28:40.262Z,13.52
2022-10-01T00:31:10.617Z,13.52
2022-10-01T00:33:38.512Z,13.53
2022-10-01T00:36:06.907Z,13.55
2022-10-01T00:38:33.927Z,13.56
2022-10-01T00:41:01.314Z,13.58
2022-10-01T00:43:31.842Z,13.58
2022-10-01T00:46:04.521Z,13.58
2022-10-01T00:48:38.581Z,13.56
2022-10-01T00:51:06.630Z,13.59
2022-10-01T00:53:33.315Z,13.55
2022-10-01T00:55:59.990Z,13.58
2022-10-01T00:58:27.532Z,13.56
2022-10-01T01:00:57.002Z,13.55
2022-10-01T01:03:24.068Z,13.55
2022-10-01T01:05:50.639Z,13.55
2022-10-01T01:08:17.984Z,13.54
2022-10-01T01:11:23.331Z,13.56
2022-10-01T01:13:57.765Z,13.55
2022-10-01T01:16:34.468Z,13.55
2022-10-01T01:19:09.461Z,13.56
2022-10-01T01:21:41.529Z,13.54
2022-10-01T01:24:45.726Z,13.56
2022-10-01T01:27:45.727Z,13.58
2022-10-01T01:30:16.570Z,13.56
2022-10-01T01:33:04.677Z,13.56
2022-10-01T01:35:36.492Z,13.55
2022-10-01T01:38:10.234Z,13.58
2022-10-01T01:40:40.730Z,13.54
2022-10-01T01:43:12.295Z,13.51
2022-10-01T01:45:40.314Z,13.52
2022-10-01T01:48:10.034Z,13.52
2022-10-01T01:50:44.532Z,13.48
2022-10-01T01:53:11.384Z,13.50
2022-10-01T01:55:39.227Z,13.50
2022-10-01T01:58:06.154Z,13.45
2022-10-01T02:00:32.648Z,13.48
2022-10-01T02:02:59.637Z,13.48
2022-10-01T02:05:33.045Z,13.43
2022-10-01T02:08:23.837Z,13.48
2022-10-01T02:11:17.771Z,13.49
2022-10-01T02:14:00.085Z,13.41
2022-10-01T02:16:32.390Z,13.39
2022-10-01T02:19:11.931Z,13.41
2022-10-01T02:22:19.338Z,13.42
2022-10-01T02:24:52.129Z,13.38
2022-10-01T02:27:25.313Z,13.41
2022-10-01T02:29:55.532Z,13.41
2022-10-01T02:32:22.804Z,13.38
2022-10-01T02:34:50.494Z,13.34
2022-10-01T02:37:22.475Z,13.30
2022-10-01T02:39:52.089Z,13.35
2022-10-01T02:42:21.402Z,13.28
2022-10-01T02:44:51.531Z,13.25
2022-10-01T02:47:26.544Z,13.27
2022-10-01T02:49:53.731Z,13.24
2022-10-01T02:52:26.321Z,13.26
2022-10-01T02:54:55.391Z,13.25
2022-10-01T02:57:26.908Z,13.25
2022-10-01T02:59:59.106Z,13.25
2022-10-01T03:02:28.013Z,13.24
2022-10-01T03:04:57.236Z,13.23
2022-10-01T03:07:25.397Z,13.25
2022-10-01T03:09:52.172Z,13.26
2022-10-01T03:12:18.890Z,13.27
2022-10-01T03:14:46.474Z,13.23
2022-10-01T03:17:13.473Z,13.20
2022-10-01T03:19:40.409Z,13.25
2022-10-01T03:22:07.762Z,13.23
2022-10-01T03:24:34.523Z,13.23
2022-10-01T03:27:01.163Z,13.22
2022-10-01T03:29:27.774Z,13.25
2022-10-01T03:31:54.794Z,13.26
2022-10-01T03:34:21.991Z,13.27
2022-10-01T03:36:49.965Z,13.29
2022-10-01T03:39:16.848Z,13.29
2022-10-01T03:41:44.060Z,13.29
2022-10-01T03:44:10.891Z,13.26
2022-10-01T03:46:37.827Z,13.29
2022-10-01T03:49:04.659Z,13.29
2022-10-01T03:51:32.139Z,13.32
2022-10-01T03:53:59.688Z,13.33
2022-10-01T03:56:26.402Z,13.33
2022-10-01T03:58:52.875Z,13.33
2022-10-01T04:01:19.428Z,13.36
2022-10-01T04:03:46.391Z,13.36
2022-10-01T04:06:13.420Z,13.37
2022-10-01T04:08:39.951Z,13.38
2022-10-01T04:11:06.898Z,13.37
2022-10-01T04:13:34.657Z,13.39
2022-10-01T04:16:02.830Z,13.38
2022-10-01T04:18:29.598Z,13.38
2022-10-01T04:20:56.100Z,13.38
2022-10-01T04:23:22.683Z,13.38
2022-10-01T04:25:49.455Z,13.39
2022-10-01T04:28:16.475Z,13.40
2022-10-01T04:30:45.018Z,13.40
2022-10-01T04:33:14.851Z,13.38
2022-10-01T04:35:41.406Z,13.37
2022-10-01T04:38:14.110Z,13.36
2022-10-01T04:40:40.641Z,13.36
2022-10-01T04:43:09.619Z,13.36
2022-10-01T04:45:39.483Z,13.41
2022-10-01T04:48:06.216Z,13.41
2022-10-01T04:50:34.288Z,13.37
2022-10-01T04:53:00.794Z,13.37
2022-10-01T04:55:27.319Z,13.36
2022-10-01T04:57:53.895Z,13.34
2022-10-01T05:00:24.477Z,13.36
2022-10-01T05:02:51.529Z,13.35
2022-10-01T05:05:20.275Z,13.33
2022-10-01T05:07:47.483Z,13.33
2022-10-01T05:10:16.610Z,13.36
2022-10-01T05:12:43.385Z,13.40
2022-10-01T05:15:10.735Z,13.40
2022-10-01T05:17:37.289Z,13.40
2022-10-01T05:20:06.601Z,13.42
2022-10-01T05:22:33.621Z,13.42
2022-10-01T05:25:00.390Z,13.40
2022-10-01T05:27:27.437Z,13.41
2022-10-01T05:29:53.994Z,13.43
2022-10-01T05:32:20.513Z,13.46
2022-10-01T05:34:51.213Z,13.47
2022-10-01T05:37:20.007Z,13.48
2022-10-01T05:39:46.644Z,13.49
2022-10-01T05:42:13.129Z,13.54
2022-10-01T05:44:45.964Z,13.55
2022-10-01T05:47:16.778Z,13.55
2022-10-01T05:49:43.826Z,13.51
2022-10-01T05:52:11.202Z,13.54
2022-10-01T05:54:38.111Z,13.55
2022-10-01T05:57:05.634Z,13.58
2022-10-01T05:59:32.301Z,13.59
2022-10-01T06:01:58.994Z,13.60
2022-10-01T06:04:25.648Z,13.61
2022-10-01T06:06:53.724Z,13.60
2022-10-01T06:09:20.224Z,13.64
2022-10-01T06:11:51.244Z,13.69
2022-10-01T06:14:18.040Z,13.72
2022-10-01T06:16:44.756Z,13.78
2022-10-01T06:19:11.344Z,13.82
2022-10-01T06:21:38.147Z,13.82
2022-10-01T06:24:05.252Z,13.85
2022-10-01T06:26:31.882Z,13.89
2022-10-01T06:28:58.392Z,13.92
2022-10-01T06:31:25.239Z,13.92
2022-10-01T06:33:51.952Z,13.94
2022-10-01T06:36:18.456Z,13.97
2022-10-01T06:38:48.200Z,13.96
2022-10-01T06:41:14.924Z,13.99
2022-10-01T06:43:41.478Z,14.02
2022-10-01T06:46:08.068Z,14.06
2022-10-01T06:48:36.474Z,14.09
2022-10-01T06:51:04.076Z,14.10
2022-10-01T06:53:31.794Z,14.11
2022-10-01T06:56:04.667Z,14.14
2022-10-01T06:58:31.299Z,14.15
2022-10-01T07:01:02.641Z,14.12
2022-10-01T07:03:31.178Z,14.13
2022-10-01T07:06:02.436Z,14.14
2022-10-01T07:08:29.121Z,14.15
2022-10-01T07:11:01.189Z,14.17
2022-10-01T07:13:27.741Z,14.21
2022-10-01T07:15:54.226Z,14.24
2022-10-01T07:18:21.119Z,14.28
2022-10-01T07:20:47.664Z,14.29
2022-10-01T07:23:15.609Z,14.28
2022-10-01T07:25:43.873Z,14.31
2022-10-01T07:28:18.231Z,14.33
2022-10-01T07:31:00.946Z,14.36
2022-10-01T07:33:28.231Z,14.40
2022-10-01T07:35:55.073Z,14.42
2022-10-01T07:38:21.874Z,14.44
2022-10-01T07:40:52.742Z,14.53
2022-10-01T07:43:19.271Z,14.59
2022-10-01T07:45:58.260Z,14.65
2022-10-01T07:48:25.681Z,14.68
2022-10-01T07:50:52.940Z,14.69
2022-10-01T07:53:20.082Z,14.67
2022-10-01T07:55:46.687Z,14.69
2022-10-01T07:58:15.260Z,14.71
2022-10-01T08:00:43.522Z,14.70
2022-10-01T08:03:12.310Z,14.71
2022-10-01T08:05:41.321Z,14.76
2022-10-01T08:08:08.743Z,14.79
2022-10-01T08:10:37.685Z,14.84
2022-10-01T08:13:08.281Z,14.82
2022-10-01T08:15:35.355Z,14.87
2022-10-01T08:18:03.223Z,14.93
2022-10-01T08:20:30.286Z,14.98
2022-10-01T08:23:08.311Z,15.01
2022-10-01T08:25:35.052Z,15.00
2022-10-01T08:28:01.871Z,15.05
2022-10-01T08:30:29.020Z,15.07
2022-10-01T08:32:56.915Z,15.10
2022-10-01T08:35:24.345Z,15.14
2022-10-01T08:37:51.031Z,15.17
2022-10-01T08:40:21.346Z,15.19
2022-10-01T08:42:51.919Z,15.23
2022-10-01T08:45:57.131Z,15.26
2022-10-01T08:48:31.062Z,15.29
2022-10-01T08:50:57.551Z,15.29
2022-10-01T08:53:33.962Z,15.35
2022-10-01T08:56:02.448Z,15.39
2022-10-01T08:58:35.152Z,15.43
2022-10-01T09:01:01.790Z,15.45
2022-10-01T09:03:31.286Z,15.48
2022-10-01T09:06:16.207Z,15.50
2022-10-01T09:09:03.262Z,15.52
2022-10-01T09:11:42.584Z,15.59
2022-10-01T09:14:44.432Z,15.61
2022-10-01T09:17:49.855Z,15.67
2022-10-01T09:20:27.463Z,15.68
2022-10-01T09:23:38.956Z,15.72
2022-10-01T09:26:11.211Z,15.76
2022-10-01T09:28:39.626Z,15.80
2022-10-01T09:31:08.946Z,15.83
2022-10-01T09:33:38.460Z,15.90
2022-10-01T09:36:16.557Z,15.96
2022-10-01T09:38:46.882Z,16.15
2022-10-01T09:41:14.706Z,16.40
2022-10-01T09:43:43.717Z,16.61
2022-10-01T09:46:15.191Z,16.80
2022-10-01T09:48:51.893Z,16.92
2022-10-01T09:51:27.450Z,16.86
2022-10-01T09:54:15.327Z,16.84
2022-10-01T09:56:56.561Z,16.88
2022-10-01T09:59:29.771Z,16.91
2022-10-01T10:01:59.836Z,17.09
2022-10-01T10:04:26.811Z,17.25
2022-10-01T10:07:05.260Z,17.31
2022-10-01T10:09:33.831Z,17.39
2022-10-01T10:12:00.798Z,17.47
2022-10-01T10:14:40.821Z,17.57
2022-10-01T10:17:13.966Z,17.67
2022-10-01T10:19:41.217Z,17.76
2022-10-01T10:22:23.241Z,17.94
2022-10-01T10:24:49.762Z,18.14
2022-10-01T10:27:28.525Z,18.20
2022-10-01T10:30:08.595Z,18.42
2022-10-01T10:32:35.180Z,18.55
2022-10-01T10:35:10.034Z,18.66
2022-10-01T10:37:42.547Z,18.71
2022-10-01T10:40:20.214Z,18.75
2022-10-01T10:42:49.165Z,18.76
2022-10-01T10:45:20.547Z,18.84
2022-10-01T10:47:52.739Z,19.02
2022-10-01T10:50:32.297Z,19.19
2022-10-01T10:52:59.373Z,19.29
2022-10-01T10:55:31.132Z,19.50
2022-10-01T10:58:16.300Z,19.69
2022-10-01T11:00:52.520Z,19.71
2022-10-01T11:03:26.348Z,19.87
2022-10-01T11:05:56.422Z,20.02
2022-10-01T11:08:26.138Z,20.01
2022-10-01T11:11:32.450Z,19.99
2022-10-01T11:14:09.500Z,20.02
2022-10-01T11:17:00.746Z,20.14
2022-10-01T11:20:10.742Z,20.43
2022-10-01T11:22:43.241Z,20.93
2022-10-01T11:25:19.413Z,21.24
2022-10-01T11:28:03.295Z,21.78
2022-10-01T11:30:42.215Z,22.33
2022-10-01T11:33:37.871Z,22.55
2022-10-01T11:36:29.829Z,22.76
2022-10-01T11:39:05.445Z,23.07
2022-10-01T11:41:39.784Z,23.28
2022-10-01T11:44:32.754Z,23.10
2022-10-01T11:47:08.712Z,22.92
2022-10-01T11:49:53.107Z,23.26
2022-10-01T11:52:37.618Z,23.32
2022-10-01T11:55:35.205Z,23.33
2022-10-01T11:58:48.971Z,23.26
2022-10-01T12:01:24.387Z,22.92
2022-10-01T12:03:53.825Z,22.69
2022-10-01T12:06:34.043Z,22.51
2022-10-01T12:09:35.402Z,22.33
2022-10-01T12:12:11.247Z,22.22
2022-10-01T12:14:44.351Z,22.03
2022-10-01T12:17:22.652Z,21.98
2022-10-01T12:19:52.068Z,21.69
2022-10-01T12:22:26.438Z,21.57
2022-10-01T12:24:53.838Z,21.70
2022-10-01T12:27:29.580Z,21.71
2022-10-01T12:30:04.366Z,21.58
2022-10-01T12:33:08.131Z,21.32
2022-10-01T12:35:58.894Z,21.18
2022-10-01T12:38:37.303Z,20.99
2022-10-01T12:41:42.070Z,20.72
2022-10-01T12:44:38.446Z,20.49
2022-10-01T12:47:16.133Z,20.36
2022-10-01T12:49:56.416Z,20.28
2022-10-01T12:52:47.659Z,20.11
2022-10-01T12:55:39.281Z,19.94
2022-10-01T12:58:24.548Z,19.96
2022-10-01T13:01:03.289Z,20.18
2022-10-01T13:03:51.196Z,21.17
2022-10-01T13:07:14.933Z,22.55
2022-10-01T13:10:00.030Z,23.70
2022-10-01T13:12:44.748Z,24.73
2022-10-01T13:15:20.816Z,24.69
2022-10-01T13:17:58.269Z,24.43
2022-10-01T13:20:41.113Z,24.04
2022-10-01T13:23:08.642Z,23.57
2022-10-01T13:26:22.952Z,23.56
2022-10-01T13:29:11.358Z,23.33
2022-10-01T13:31:37.872Z,23.42
2022-10-01T13:34:42.878Z,23.33
2022-10-01T13:37:10.281Z,23.19
2022-10-01T13:39:41.956Z,23.06
2022-10-01T13:42:18.367Z,22.84
2022-10-01T13:44:45.065Z,22.50
2022-10-01T13:47:13.340Z,22.24
2022-10-01T13:49:42.936Z,22.12
2022-10-01T13:52:19.385Z,21.84
2022-10-01T13:54:56.394Z,21.45
2022-10-01T13:57:37.993Z,21.03
2022-10-01T14:00:16.573Z,21.23
2022-10-01T14:03:06.931Z,21.83
2022-10-01T14:05:37.821Z,22.38
2022-10-01T14:08:25.850Z,23.36
2022-10-01T14:11:20.435Z,23.98
2022-10-01T14:14:06.772Z,24.32
2022-10-01T14:16:46.229Z,24.76
2022-10-01T14:19:21.534Z,24.84
2022-10-01T14:22:13.216Z,24.98
2022-10-01T14:25:08.479Z,24.54
2022-10-01T14:27:53.173Z,24.70
2022-10-01T14:30:50.483Z,24.36
2022-10-01T14:34:04.222Z,24.35
2022-10-01T14:36:37.516Z,24.14
2022-10-01T14:39:15.831Z,24.00
2022-10-01T14:41:42.851Z,24.07
2022-10-01T14:44:43.807Z,23.45
2022-10-01T14:47:25.118Z,22.98
2022-10-01T14:49:53.775Z,22.64
2022-10-01T14:52:29.533Z,22.32
2022-10-01T14:55:01.335Z,21.95
2022-10-01T14:57:33.230Z,21.96
2022-10-01T15:00:03.122Z,21.88
2022-10-01T15:02:29.662Z,21.41
2022-10-01T15:04:57.488Z,21.11
2022-10-01T15:07:27.997Z,20.74
2022-10-01T15:10:06.024Z,20.38
2022-10-01T15:12:38.493Z,20.08
2022-10-01T15:15:15.352Z,19.83
2022-10-01T15:17:42.494Z,19.78
2022-10-01T15:20:12.129Z,19.71
2022-10-01T15:22:39.680Z,19.61
2022-10-01T15:25:06.832Z,19.43
2022-10-01T15:27:33.746Z,19.27
2022-10-01T15:30:00.385Z,19.06
2022-10-01T15:32:28.437Z,18.99
2022-10-01T15:34:58.126Z,18.75
2022-10-01T15:37:37.902Z,18.48
2022-10-01T15:40:09.674Z,18.35
2022-10-01T15:42:36.957Z,18.30
2022-10-01T15:45:09.319Z,18.19
2022-10-01T15:47:47.783Z,18.15
2022-10-01T15:50:18.819Z,17.99
2022-10-01T15:52:54.403Z,17.90
2022-10-01T15:55:23.742Z,17.86
2022-10-01T15:58:15.113Z,17.79
2022-10-01T16:00:43.883Z,17.66
2022-10-01T16:03:31.588Z,17.57
2022-10-01T16:06:01.918Z,17.54
2022-10-01T16:08:35.361Z,17.44
2022-10-01T16:11:16.041Z,17.19
2022-10-01T16:13:49.043Z,17.07
2022-10-01T16:16:21.338Z,16.91
2022-10-01T16:18:54.045Z,16.86
2022-10-01T16:21:21.756Z,16.83
2022-10-01T16:23:54.023Z,16.70
2022-10-01T16:26:38.188Z,16.61
2022-10-01T16:29:14.225Z,16.56
2022-10-01T16:31:44.338Z,16.45
2022-10-01T16:34:16.310Z,16.35
2022-10-01T16:36:43.183Z,16.20
2022-10-01T16:39:12.540Z,16.12
2022-10-01T16:41:40.767Z,16.07
2022-10-01T16:44:07.415Z,15.92
2022-10-01T16:46:34.081Z,15.86
2022-10-01T16:49:00.779Z,15.83
2022-10-01T16:51:27.362Z,15.83
2022-10-01T16:53:54.974Z,15.80
2022-10-01T16:56:26.291Z,15.70
2022-10-01T16:58:53.756Z,15.65
2022-10-01T17:01:20.381Z,15.66
2022-10-01T17:03:46.964Z,15.63
2022-10-01T17:06:13.468Z,15.62
2022-10-01T17:08:40.008Z,15.62
2022-10-01T17:11:10.671Z,15.62
2022-10-01T17:13:39.079Z,15.53
2022-10-01T17:16:05.907Z,15.41
2022-10-01T17:18:32.628Z,15.44
2022-10-01T17:20:59.598Z,15.36
2022-10-01T17:23:26.078Z,15.27
2022-10-01T17:25:52.623Z,15.25
2022-10-01T17:28:20.620Z,15.16
2022-10-01T17:30:48.778Z,15.14
2022-10-01T17:33:19.141Z,15.10
2022-10-01T17:35:52.235Z,14.94
2022-10-01T17:38:19.456Z,14.85
2022-10-01T17:40:46.291Z,14.84
2022-10-01T17:43:15.223Z,14.78
2022-10-01T17:45:42.550Z,14.72
2022-10-01T17:48:09.697Z,14.69
2022-10-01T17:50:43.622Z,14.66
2022-10-01T17:53:11.555Z,14.60
2022-10-01T17:55:42.132Z,14.57
2022-10-01T17:58:08.682Z,14.53
2022-10-01T18:00:35.479Z,14.42
2022-10-01T18:03:02.136Z,14.32
2022-10-01T18:05:28.696Z,14.41
2022-10-01T18:07:55.483Z,14.36
2022-10-01T18:10:21.974Z,14.39
2022-10-01T18:12:48.555Z,14.25
2022-10-01T18:15:15.526Z,14.23
2022-10-01T18:17:43.784Z,14.14
2022-10-01T18:20:18.955Z,14.10
2022-10-01T18:22:45.478Z,14.06
2022-10-01T18:25:13.933Z,13.98
2022-10-01T18:27:40.468Z,13.83
2022-10-01T18:30:07.680Z,13.82
2022-10-01T18:32:40.696Z,13.80
2022-10-01T18:35:27.748Z,13.78
2022-10-01T18:38:20.666Z,13.81
2022-10-01T18:40:56.673Z,13.74
2022-10-01T18:43:25.926Z,13.68
2022-10-01T18:46:19.836Z,13.61
2022-10-01T18:49:03.828Z,13.64
2022-10-01T18:52:01.072Z,13.58
2022-10-01T18:54:27.515Z,13.52
2022-10-01T18:57:05.212Z,13.52
2022-10-01T18:59:35.650Z,13.48
2022-10-01T19:02:23.664Z,13.40
2022-10-01T19:05:23.308Z,13.34
2022-10-01T19:08:17.623Z,13.35
2022-10-01T19:11:14.583Z,13.38
2022-10-01T19:14:25.571Z,13.36
2022-10-01T19:17:06.796Z,13.33
2022-10-01T19:19:52.911Z,13.32
2022-10-01T19:22:42.483Z,13.31
2022-10-01T19:25:20.468Z,13.32
2022-10-01T19:28:01.407Z,13.33
2022-10-01T19:30:37.836Z,13.34
2022-10-01T19:33:13.167Z,13.38
2022-10-01T19:35:42.236Z,13.41
2022-10-01T19:38:23.895Z,13.45
2022-10-01T19:41:02.589Z,13.47
2022-10-01T19:43:55.386Z,13.51
2022-10-01T19:46:40.082Z,13.53
2022-10-01T19:49:09.927Z,13.54
2022-10-01T19:51:40.808Z,13.56
2022-10-01T19:54:16.960Z,13.61
2022-10-01T19:56:47.883Z,13.64
2022-10-01T19:59:19.818Z,13.67
2022-10-01T20:01:52.445Z,13.70
2022-10-01T20:04:51.682Z,13.73
2022-10-01T20:07:24.197Z,13.76
2022-10-01T20:10:13.648Z,13.78
2022-10-01T20:12:50.882Z,13.76
2022-10-01T20:15:42.444Z,13.76
2022-10-01T20:18:14.810Z,13.79
2022-10-01T20:20:43.889Z,13.77
2022-10-01T20:23:34.989Z,13.78
2022-10-01T20:26:22.574Z,13.72
2022-10-01T20:29:10.465Z,13.72
2022-10-01T20:32:14.877Z,13.71
2022-10-01T20:35:00.556Z,13.69
2022-10-01T20:37:57.090Z,13.68
2022-10-01T20:40:37.284Z,13.71
2022-10-01T20:43:22.414Z,13.68
2022-10-01T20:45:53.687Z,13.69
2022-10-01T20:48:25.350Z,13.71
2022-10-01T20:50:55.505Z,13.68
2022-10-01T20:53:45.235Z,13.64
2022-10-01T20:56:16.070Z,13.67
2022-10-01T20:58:53.649Z,13.68
2022-10-01T21:01:23.905Z,13.64
2022-10-01T21:04:02.803Z,13.59
2022-10-01T21:06:43.837Z,13.64
2022-10-01T21:09:19.061Z,13.60
2022-10-01T21:12:02.139Z,13.60
2022-10-01T21:14:54.575Z,13.50
2022-10-01T21:17:57.559Z,13.46
2022-10-01T21:21:06.432Z,13.40
2022-10-01T21:23:54.152Z,13.36
2022-10-01T21:26:47.107Z,13.38
2022-10-01T21:29:44.893Z,13.36
2022-10-01T21:32:33.432Z,13.29
2022-10-01T21:35:24.099Z,13.21
2022-10-01T21:37:56.678Z,13.15
2022-10-01T21:40:40.622Z,13.06
2022-10-01T21:43:12.222Z,13.01
2022-10-01T21:45:54.988Z,12.99
2022-10-01T21:48:21.463Z,12.90
2022-10-01T21:51:07.346Z,12.91
2022-10-01T21:53:57.018Z,12.85
2022-10-01T21:56:26.627Z,12.81
2022-10-01T21:59:05.591Z,12.80
2022-10-01T22:01:44.104Z,12.74
2022-10-01T22:04:24.761Z,12.58
2022-10-01T22:07:05.440Z,12.48
2022-10-01T22:09:44.403Z,12.41
2022-10-01T22:12:12.149Z,12.29
2022-10-01T22:14:40.756Z,12.22
2022-10-01T22:17:22.491Z,12.28
2022-10-01T22:19:52.254Z,12.21
2022-10-01T22:22:38.662Z,12.19
2022-10-01T22:25:07.692Z,12.21
2022-10-01T22:27:37.094Z,12.23
2022-10-01T22:30:13.480Z,12.16
2022-10-01T22:32:50.926Z,12.15
2022-10-01T22:35:24.543Z,12.11
2022-10-01T22:38:02.789Z,12.06
2022-10-01T22:40:35.969Z,12.01
2022-10-01T22:43:07.874Z,12.00
2022-10-01T22:45:42.145Z,11.95
2022-10-01T22:48:16.808Z,11.92
2022-10-01T22:50:54.394Z,11.92
2022-10-01T22:53:45.556Z,11.90
2022-10-01T22:56:16.610Z,11.87
2022-10-01T22:59:26.690Z,11.85
2022-10-01T23:02:19.380Z,11.89
2022-10-01T23:05:07.463Z,11.92
2022-10-01T23:07:36.929Z,11.97
2022-10-01T23:10:16.328Z,11.93
2022-10-01T23:13:00.965Z,11.89
2022-10-01T23:15:32.335Z,11.85
2022-10-01T23:18:22.851Z,11.84
2022-10-01T23:21:15.935Z,11.80
2022-10-01T23:23:54.080Z,11.80
2022-10-01T23:26:33.197Z,11.79
2022-10-01T23:29:16.015Z,11.77
2022-10-01T23:31:54.861Z,11.77
2022-10-01T23:34:30.413Z,11.80
2022-10-01T23:37:13.738Z,11.85
2022-10-01T23:40:01.439Z,11.88
2022-10-01T23:42:38.937Z,11.91
2022-10-01T23:45:18.459Z,11.93
2022-10-01T23:48:03.399Z,11.92
2022-10-01T23:50:45.723Z,11.90
2022-10-01T23:53:27.792Z,11.91
2022-10-01T23:56:27.651Z,11.92
2022-10-01T23:59:01.759Z,11.93
